Time;durP1;ratioP1;P1;durP2;ratioP2;P2;SDS_P1;SDS_P2;PMS_P1;PMS_P2;Temp;Humidity;BMP_temperature;BMP_pressure;BME280_temperature;BME280_humidity;BME280_pressure;Samples;Min_cycle;Max_cycle;Signal;HPM_P1;HPM_P2
2023/08/12 00:00:29;;;;;;;;;;;;;;;22.66;60.20;101754.84;5064765;28;19916;-62
2023/08/12 00:02:54;;;;;;;;;;;;;;;22.66;60.23;101762.97;5067589;28;19917;-60
2023/08/12 00:05:20;;;;;;;;;;;;;;;22.66;60.09;101757.56;5064820;28;19959;-60
2023/08/12 00:07:45;;;;;;;;;;;;;;;22.65;60.17;101749.63;5064611;28;19924;-60
2023/08/12 00:10:11;;;;;;;;;;;;;;;22.65;60.21;101746.91;5097395;28;19924;-60
2023/08/12 00:12:36;;;;;;;;;;;;;;;22.65;60.37;101747.75;5063737;28;19920;-60
2023/08/12 00:15:02;;;;;;;;;;;;;;;22.65;60.26;101744.19;5064496;28;19916;-60
2023/08/12 00:17:28;;;;;;;;;;;;;;;22.65;59.97;101746.91;5064807;28;19912;-59
2023/08/12 00:19:53;;;;;;;;;;;;;;;22.65;60.13;101744.19;5063050;28;19921;-61
2023/08/12 00:22:18;;;;;;;;;;;;;;;22.64;60.13;101747.91;5065516;28;19929;-61
2023/08/12 00:24:44;;;;;;;;;;;;;;;22.64;60.17;101737.94;5064439;28;19917;-60
2023/08/12 00:27:09;;;;;;;;;;;;;;;22.64;59.93;101737.94;5064192;28;19917;-62
2023/08/12 00:29:35;;;;;;;;;;;;;;;22.64;59.91;101739.75;5064090;28;19944;-60
2023/08/12 00:32:00;;;;;;;;;;;;;;;22.63;60.34;101728.09;5064416;28;19944;-60
2023/08/12 00:34:25;;;;;;;;;;;;;;;22.62;60.15;101736.41;5064282;28;19952;-59
2023/08/12 00:36:50;;;;;;;;;;;;;;;22.62;59.91;101737.25;5064053;28;19920;-60
2023/08/12 00:39:16;;;;;;;;;;;;;;;22.61;60.29;101740.97;5064236;28;19916;-60
2023/08/12 00:41:41;;;;;;;;;;;;;;;22.61;60.08;101749.09;5063971;28;19913;-60
2023/08/12 00:44:06;;;;;;;;;;;;;;;22.62;60.17;101739.94;5064890;28;20373;-59
2023/08/12 00:46:32;;;;;;;;;;;;;;;22.62;59.93;101739.09;5063782;28;20570;-59
2023/08/12 00:48:57;;;;;;;;;;;;;;;22.62;60.07;101728.25;5062885;28;20321;-61
2023/08/12 00:51:22;;;;;;;;;;;;;;;22.61;60.17;101722.00;5064088;28;19917;-62
2023/08/12 00:53:47;;;;;;;;;;;;;;;22.61;59.87;101721.16;5064049;28;19913;-60
2023/08/12 00:56:12;;;;;;;;;;;;;;;22.61;60.00;101726.59;5096474;28;19931;-60
2023/08/12 00:58:38;;;;;;;;;;;;;;;22.60;60.21;101723.03;5063664;28;19975;-60
2023/08/12 01:01:03;;;;;;;;;;;;;;;22.60;60.01;101706.78;5095356;28;19923;-62
2023/08/12 01:03:29;;;;;;;;;;;;;;;22.61;59.87;101710.31;5064408;28;19936;-58
2023/08/12 01:05:54;;;;;;;;;;;;;;;22.60;60.17;101714.03;5095433;28;19924;-62
2023/08/12 01:08:19;;;;;;;;;;;;;;;22.60;60.04;101709.47;5062892;28;19917;-62
2023/08/12 01:10:47;;;;;;;;;;;;;;;22.60;59.97;101695.06;5062947;28;19924;-60
2023/08/12 01:13:38;;;;;;;;;;;;;;;22.59;59.95;101696.91;5062921;28;20366;-56
2023/08/12 01:16:04;;;;;;;;;;;;;;;22.59;60.20;101696.91;5062370;28;19925;-62
2023/08/12 01:18:29;;;;;;;;;;;;;;;22.59;60.00;101698.78;5095962;28;19980;-57
2023/08/12 01:20:54;;;;;;;;;;;;;;;22.59;60.01;101698.78;5097268;28;19921;-62
2023/08/12 01:23:20;;;;;;;;;;;;;;;22.58;60.10;101695.25;5062847;28;19913;-62
2023/08/12 01:25:45;;;;;;;;;;;;;;;22.59;60.04;101683.38;5062953;28;19916;-62
2023/08/12 01:28:10;;;;;;;;;;;;;;;22.59;59.84;101687.94;5064152;28;19932;-62
2023/08/12 01:30:38;;;;;;;;;;;;;;;22.58;59.92;101680.84;5062017;28;19980;-62
2023/08/12 01:33:07;;;;;;;;;;;;;;;22.57;59.93;101680.00;5096426;28;20375;-62
2023/08/12 01:35:35;;;;;;;;;;;;;;;22.58;60.11;101684.41;5062998;28;20262;-62
2023/08/12 01:38:00;;;;;;;;;;;;;;;22.58;60.12;101683.56;5063491;28;19920;-62
2023/08/12 01:40:25;;;;;;;;;;;;;;;22.58;60.14;101672.72;5095353;28;19917;-62
2023/08/12 01:42:50;;;;;;;;;;;;;;;22.57;60.03;101671.88;5095527;28;19920;-62
2023/08/12 01:45:15;;;;;;;;;;;;;;;22.57;59.89;101680.00;5062682;28;19917;-62
2023/08/12 01:47:44;;;;;;;;;;;;;;;22.57;60.13;101666.44;5063203;28;20056;-62
2023/08/12 01:50:09;;;;;;;;;;;;;;;22.57;60.19;101660.19;5062774;28;19980;-62
2023/08/12 01:52:35;;;;;;;;;;;;;;;22.57;59.96;101658.31;5063288;28;19921;-62
2023/08/12 01:55:00;;;;;;;;;;;;;;;22.57;60.00;101661.03;5063421;28;19917;-62
2023/08/12 01:57:25;;;;;;;;;;;;;;;22.58;59.81;101654.59;5063450;28;20416;-61
2023/08/12 01:59:51;;;;;;;;;;;;;;;22.58;59.92;101659.16;5062327;28;20267;-62
2023/08/12 02:02:16;;;;;;;;;;;;;;;22.57;59.87;101649.34;5063948;28;20381;-62
2023/08/12 02:04:42;;;;;;;;;;;;;;;22.57;59.74;101654.78;5062632;28;20392;-62
2023/08/12 02:07:08;;;;;;;;;;;;;;;22.56;60.04;101653.94;5062535;28;19917;-62
2023/08/12 02:09:33;;;;;;;;;;;;;;;22.56;59.83;101648.50;5063246;28;19964;-55
2023/08/12 02:11:58;;;;;;;;;;;;;;;22.57;59.97;101649.34;5062768;28;19917;-62
2023/08/12 02:14:23;;;;;;;;;;;;;;;22.56;59.72;101648.50;5062961;28;19912;-62
2023/08/12 02:16:49;;;;;;;;;;;;;;;22.56;59.97;101645.78;5062393;28;19950;-62
2023/08/12 02:19:14;;;;;;;;;;;;;;;22.56;60.00;101643.09;5062819;28;19913;-61
2023/08/12 02:21:39;;;;;;;;;;;;;;;22.56;59.73;101645.78;5062898;28;19933;-62
2023/08/12 02:24:05;;;;;;;;;;;;;;;22.56;60.03;101636.81;5063090;28;19928;-62
2023/08/12 02:26:30;;;;;;;;;;;;;;;22.56;59.78;101640.38;5061039;28;19927;-62
2023/08/12 02:28:55;;;;;;;;;;;;;;;22.56;59.83;101642.25;5062891;28;20336;-62
2023/08/12 02:31:20;;;;;;;;;;;;;;;22.55;59.81;101633.25;5062146;28;19912;-62
2023/08/12 02:33:46;;;;;;;;;;;;;;;22.55;59.74;101635.09;5062909;28;19913;-62
2023/08/12 02:36:11;;;;;;;;;;;;;;;22.56;59.59;101632.25;5064999;28;19913;-62
2023/08/12 02:38:36;;;;;;;;;;;;;;;22.55;59.74;101629.69;5066907;28;19913;-62
2023/08/12 02:41:01;;;;;;;;;;;;;;;22.55;59.53;101632.41;5066585;28;19912;-61
2023/08/12 02:43:26;;;;;;;;;;;;;;;22.55;59.87;101624.28;5067038;28;19913;-62
2023/08/12 02:45:52;;;;;;;;;;;;;;;22.55;59.62;101616.13;5065350;28;19920;-62
2023/08/12 02:48:17;;;;;;;;;;;;;;;22.55;59.87;101616.13;5067092;28;19917;-62
2023/08/12 02:50:42;;;;;;;;;;;;;;;22.54;59.67;101612.59;5066618;28;19952;-62
2023/08/12 02:53:08;;;;;;;;;;;;;;;22.55;59.79;101610.72;5063423;28;19964;-61
2023/08/12 02:55:33;;;;;;;;;;;;;;;22.54;59.68;101609.03;5065880;28;19920;-62
2023/08/12 02:57:59;;;;;;;;;;;;;;;22.55;59.65;101605.31;5099112;28;19917;-62
2023/08/12 03:00:24;;;;;;;;;;;;;;;22.54;59.67;101600.91;5065935;28;19917;-62
2023/08/12 03:02:49;;;;;;;;;;;;;;;22.54;59.69;101609.88;5065671;28;19921;-62
2023/08/12 03:05:15;;;;;;;;;;;;;;;22.54;59.48;101604.47;5065671;28;19913;-61
2023/08/12 03:07:40;;;;;;;;;;;;;;;22.54;59.48;101601.75;5066128;28;19924;-62
2023/08/12 03:10:05;;;;;;;;;;;;;;;22.53;59.75;101602.78;5066006;28;19917;-61
2023/08/12 03:12:31;;;;;;;;;;;;;;;22.54;59.69;101595.50;5066426;28;19952;-62
2023/08/12 03:14:56;;;;;;;;;;;;;;;22.53;59.74;101600.06;5064980;28;20419;-62
2023/08/12 03:17:21;;;;;;;;;;;;;;;22.54;59.69;101595.50;5066414;28;20282;-61
2023/08/12 03:19:46;;;;;;;;;;;;;;;22.53;59.43;101591.09;5066156;28;19980;-62
2023/08/12 03:22:11;;;;;;;;;;;;;;;22.52;59.75;101582.13;5065781;28;20307;-62
2023/08/12 03:24:36;;;;;;;;;;;;;;;21.81;59.29;101475.53;5065741;28;19920;-62
2023/08/12 03:27:02;;;;;;;;;;;;;;;22.52;59.82;101579.41;5065478;28;19924;-62
2023/08/12 03:29:27;;;;;;;;;;;;;;;22.53;59.51;101582.97;5066085;28;19912;-62
2023/08/12 03:31:52;;;;;;;;;;;;;;;22.53;59.54;101581.09;5097429;28;20285;-62
2023/08/12 03:34:17;;;;;;;;;;;;;;;22.53;59.51;101566.72;5065210;28;20358;-62
2023/08/12 03:36:43;;;;;;;;;;;;;;;22.53;59.65;101566.72;5065163;28;19967;-62
2023/08/12 03:39:08;;;;;;;;;;;;;;;22.52;59.51;101563.16;5065972;28;19970;-62
2023/08/12 03:41:34;;;;;;;;;;;;;;;22.52;59.58;101568.56;5065516;28;19916;-62
2023/08/12 03:43:59;;;;;;;;;;;;;;;22.51;59.51;101566.84;5065916;28;19924;-62
2023/08/12 03:46:24;;;;;;;;;;;;;;;22.52;59.68;101563.16;5063443;28;19931;-62
2023/08/12 03:48:49;;;;;;;;;;;;;;;22.52;59.37;101559.59;5065487;28;20686;-61
2023/08/12 03:51:15;;;;;;;;;;;;;;;22.52;59.51;101565.03;5065374;28;19923;-62
2023/08/12 03:53:40;;;;;;;;;;;;;;;22.52;59.50;101565.03;5065710;28;19917;-62
2023/08/12 03:56:05;;;;;;;;;;;;;;;22.52;59.22;101560.44;5065118;28;19928;-62
2023/08/12 03:58:30;;;;;;;;;;;;;;;22.51;59.62;101556.03;5065641;28;19920;-61
2023/08/12 04:00:55;;;;;;;;;;;;;;;22.52;59.43;101559.59;5064397;28;19923;-62
2023/08/12 04:03:21;;;;;;;;;;;;;;;22.22;59.58;101513.34;5065241;28;19916;-62
2023/08/12 04:05:52;;;;;;;;;;;;;;;22.50;59.59;101557.06;5063990;28;19913;-61
2023/08/12 04:08:18;;;;;;;;;;;;;;;22.51;59.31;101544.34;5065376;28;19916;-62
2023/08/12 04:10:44;;;;;;;;;;;;;;;22.51;59.34;101544.34;5064813;28;20277;-62
2023/08/12 04:13:09;;;;;;;;;;;;;;;22.50;59.53;101539.94;5065486;28;19913;-62
2023/08/12 04:15:34;;;;;;;;;;;;;;;22.51;59.34;101547.06;5064182;28;19912;-62
2023/08/12 04:18:00;;;;;;;;;;;;;;;22.51;59.36;101550.59;5064846;28;19917;-61
2023/08/12 04:20:25;;;;;;;;;;;;;;;22.51;59.55;101541.63;5065588;28;19920;-62
2023/08/12 04:22:50;;;;;;;;;;;;;;;22.51;59.49;101542.47;5064310;28;19924;-62
2023/08/12 04:25:16;;;;;;;;;;;;;;;22.50;59.44;101543.50;5064483;28;19924;-62
2023/08/12 04:27:41;;;;;;;;;;;;;;;22.50;59.59;101535.38;5064414;28;19923;-62
2023/08/12 04:30:06;;;;;;;;;;;;;;;22.51;59.60;101528.09;5064501;28;20433;-62
2023/08/12 04:32:32;;;;;;;;;;;;;;;22.51;59.22;101518.09;5064578;28;19921;-63
2023/08/12 04:34:57;;;;;;;;;;;;;;;22.50;59.43;101512.84;5062381;28;19927;-61
2023/08/12 04:37:24;;;;;;;;;;;;;;;22.51;59.43;101520.78;5064557;28;19913;-62
2023/08/12 04:39:49;;;;;;;;;;;;;;;22.50;59.52;101519.13;5064359;28;19939;-62
2023/08/12 04:42:14;;;;;;;;;;;;;;;22.50;59.43;101510.13;5063850;28;19913;-61
2023/08/12 04:44:39;;;;;;;;;;;;;;;22.50;59.64;101510.97;5064028;28;19913;-62
2023/08/12 04:47:05;;;;;;;;;;;;;;;22.50;59.39;101513.69;5064262;28;19940;-62
2023/08/12 04:49:30;;;;;;;;;;;;;;;22.50;59.66;101502.84;5064650;28;19939;-62
2023/08/12 04:51:55;;;;;;;;;;;;;;;22.50;59.46;101502.00;5063110;28;20390;-62
2023/08/12 04:54:21;;;;;;;;;;;;;;;22.50;59.43;101502.00;5064583;28;19977;-62
2023/08/12 04:56:46;;;;;;;;;;;;;;;22.50;59.26;101500.16;5063733;28;19913;-62
2023/08/12 04:59:11;;;;;;;;;;;;;;;22.50;59.24;101496.59;5063987;28;20400;-62
2023/08/12 05:01:37;;;;;;;;;;;;;;;22.50;59.49;101491.16;5062578;28;19916;-61
2023/08/12 05:04:02;;;;;;;;;;;;;;;22.50;59.29;101485.75;5063646;28;19913;-61
2023/08/12 05:06:27;;;;;;;;;;;;;;;22.50;59.49;101483.03;5057688;28;19935;-61
2023/08/12 05:08:52;;;;;;;;;;;;;;;22.50;59.62;101477.63;5062152;28;19913;-61
2023/08/12 05:11:17;;;;;;;;;;;;;;;22.51;59.26;101484.72;5062808;28;19975;-62
2023/08/12 05:13:43;;;;;;;;;;;;;;;22.50;59.50;101475.75;5063611;28;19913;-62
2023/08/12 05:16:08;;;;;;;;;;;;;;;22.50;59.43;101481.19;5063202;28;19916;-61
2023/08/12 05:18:33;;;;;;;;;;;;;;;22.51;59.28;101482.00;5063514;28;19930;-61
2023/08/12 05:20:58;;;;;;;;;;;;;;;22.51;59.71;101477.44;5063113;28;20027;-59
2023/08/12 05:23:24;;;;;;;;;;;;;;;22.52;59.65;101464.75;5063885;28;19920;-62
2023/08/12 05:25:49;;;;;;;;;;;;;;;22.52;59.68;101467.47;5063256;28;19962;-61
2023/08/12 05:28:14;;;;;;;;;;;;;;;22.52;59.56;101467.47;5063256;28;19939;-62
2023/08/12 05:30:39;;;;;;;;;;;;;;;22.53;59.81;101474.56;5062586;28;20421;-62
2023/08/12 05:33:05;;;;;;;;;;;;;;;22.52;59.84;101473.72;5063668;28;19912;-62
2023/08/12 05:35:34;;;;;;;;;;;;;;;22.52;59.81;101465.59;5062960;28;19912;-62
2023/08/12 05:37:59;;;;;;;;;;;;;;;22.52;59.73;101468.31;5062964;28;19917;-62
2023/08/12 05:40:24;;;;;;;;;;;;;;;22.52;59.49;101460.19;5095561;28;20007;-60
2023/08/12 05:42:49;;;;;;;;;;;;;;;22.52;59.65;101467.47;5062918;28;19913;-62
2023/08/12 05:45:14;;;;;;;;;;;;;;;22.52;59.72;101467.47;5061114;28;19919;-61
2023/08/12 05:47:40;;;;;;;;;;;;;;;22.52;59.87;101470.19;5063190;28;19917;-62
2023/08/12 05:50:06;;;;;;;;;;;;;;;22.52;59.86;101470.19;5063714;28;19938;-61
2023/08/12 05:52:31;;;;;;;;;;;;;;;22.52;59.95;101456.63;5062646;28;19917;-62
2023/08/12 05:54:56;;;;;;;;;;;;;;;22.52;60.18;101451.22;5062791;28;19913;-61
2023/08/12 05:57:21;;;;;;;;;;;;;;;22.52;60.10;101437.66;5063196;28;19950;-61
2023/08/12 05:59:47;;;;;;;;;;;;;;;22.51;60.35;101439.50;5062548;28;19923;-60
2023/08/12 06:02:12;;;;;;;;;;;;;;;22.51;60.55;101439.50;5062325;28;19942;-62
2023/08/12 06:04:37;;;;;;;;;;;;;;;22.52;60.40;101443.91;5062720;28;19917;-62
2023/08/12 06:07:02;;;;;;;;;;;;;;;22.51;60.47;101452.19;5062626;28;19939;-62
2023/08/12 06:09:28;;;;;;;;;;;;;;;22.51;60.28;101471.16;5096024;28;19947;-62
2023/08/12 06:11:53;;;;;;;;;;;;;;;22.51;60.32;101465.75;5069014;28;19916;-62
2023/08/12 06:14:18;;;;;;;;;;;;;;;22.51;60.33;101466.59;5067211;28;19947;-61
2023/08/12 06:16:43;;;;;;;;;;;;;;;22.51;60.44;101458.47;5066224;28;20015;-62
2023/08/12 06:19:08;;;;;;;;;;;;;;;22.52;60.21;101456.63;5066866;28;20013;-61
2023/08/12 06:21:34;;;;;;;;;;;;;;;22.52;60.26;101446.63;5066349;28;19955;-62
2023/08/12 06:23:59;;;;;;;;;;;;;;;22.51;60.58;101450.34;5066719;28;19917;-61
2023/08/12 06:26:24;;;;;;;;;;;;;;;22.52;60.32;101451.22;5066803;28;19913;-61
2023/08/12 06:28:49;;;;;;;;;;;;;;;22.51;60.60;101449.50;5066726;28;19974;-61
2023/08/12 06:31:15;;;;;;;;;;;;;;;22.51;60.68;101454.91;5065913;28;19925;-62
2023/08/12 06:33:40;;;;;;;;;;;;;;;22.51;60.65;101453.03;5066891;28;19912;-62
2023/08/12 06:36:05;;;;;;;;;;;;;;;22.51;60.84;101444.91;5066237;28;19913;-62
2023/08/12 06:38:31;;;;;;;;;;;;;;;22.50;60.64;101445.94;5064531;28;19944;-61
2023/08/12 06:40:56;;;;;;;;;;;;;;;22.51;60.66;101441.38;5062787;28;19921;-61
2023/08/12 06:43:21;;;;;;;;;;;;;;;22.50;60.70;101443.22;5066504;28;20273;-61
2023/08/12 06:45:46;;;;;;;;;;;;;;;22.51;60.84;101438.66;5065451;28;20350;-61
2023/08/12 06:48:12;;;;;;;;;;;;;;;22.51;60.80;101434.06;5066646;28;19917;-61
2023/08/12 06:50:37;;;;;;;;;;;;;;;22.50;60.68;101431.56;5066129;28;20297;-62
2023/08/12 06:53:02;;;;;;;;;;;;;;;22.51;60.71;101441.38;5048919;28;19981;-60
2023/08/12 06:55:27;;;;;;;;;;;;;;;22.50;60.86;101442.41;5062309;28;19917;-62
2023/08/12 06:57:53;;;;;;;;;;;;;;;22.51;60.71;101441.38;5062763;28;19924;-62
2023/08/12 07:00:18;;;;;;;;;;;;;;;22.50;60.98;101443.22;5062246;28;20015;-61
2023/08/12 07:02:43;;;;;;;;;;;;;;;22.51;61.02;101444.06;5094409;28;19917;-61
2023/08/12 07:05:08;;;;;;;;;;;;;;;22.51;60.99;101446.78;5062704;28;19921;-60
2023/08/12 07:07:34;;;;;;;;;;;;;;;22.52;61.09;101440.38;5062654;28;19956;-61
2023/08/12 07:09:59;;;;;;;;;;;;;;;22.50;60.89;101432.41;5061828;28;19931;-60
2023/08/12 07:12:24;;;;;;;;;;;;;;;22.51;60.92;101435.94;5065725;28;19913;-61
2023/08/12 07:14:49;;;;;;;;;;;;;;;22.50;60.58;101440.53;5064881;28;19913;-61
2023/08/12 07:17:14;;;;;;;;;;;;;;;22.50;60.78;101434.28;5065805;28;19913;-61
2023/08/12 07:19:40;;;;;;;;;;;;;;;22.51;60.82;101435.94;5065661;28;19913;-61
2023/08/12 07:22:05;;;;;;;;;;;;;;;22.51;61.03;101425.09;5064948;28;19990;-61
2023/08/12 07:24:30;;;;;;;;;;;;;;;22.51;61.14;101414.28;5066005;28;19967;-61
2023/08/12 07:26:55;;;;;;;;;;;;;;;22.50;60.97;101416.13;5065225;28;19916;-61
2023/08/12 07:29:21;;;;;;;;;;;;;;;22.51;61.19;101419.69;5066120;28;20016;-60
2023/08/12 07:31:46;;;;;;;;;;;;;;;22.50;60.90;101413.44;5065077;28;19917;-62
2023/08/12 07:34:13;;;;;;;;;;;;;;;22.51;60.91;101419.69;5065083;28;19964;-61
2023/08/12 07:36:38;;;;;;;;;;;;;;;22.51;60.92;101414.28;5065255;28;19962;-61
2023/08/12 07:39:03;;;;;;;;;;;;;;;22.51;61.27;101420.53;5064453;28;19913;-62
2023/08/12 07:41:29;;;;;;;;;;;;;;;22.51;61.23;101417.81;5065855;28;19917;-61
2023/08/12 07:43:54;;;;;;;;;;;;;;;22.51;61.16;101406.97;5065406;28;20289;-62
2023/08/12 07:46:19;;;;;;;;;;;;;;;22.51;61.11;101415.09;5064420;28;19916;-60
2023/08/12 07:48:44;;;;;;;;;;;;;;;22.51;60.97;101414.28;5065442;28;19948;-60
2023/08/12 07:51:10;;;;;;;;;;;;;;;22.51;61.12;101401.56;5065408;28;19920;-60
2023/08/12 07:53:35;;;;;;;;;;;;;;;22.51;61.37;101403.44;5061685;28;19921;-59
2023/08/12 07:56:00;;;;;;;;;;;;;;;22.52;60.91;101407.84;5064414;28;19913;-61
2023/08/12 07:58:26;;;;;;;;;;;;;;;22.51;61.12;101401.56;5066591;28;20013;-61
2023/08/12 08:00:54;;;;;;;;;;;;;;;22.51;61.23;101408.84;5064176;28;20328;-61
2023/08/12 08:03:19;;;;;;;;;;;;;;;22.51;61.16;101404.25;5065520;28;19952;-61
2023/08/12 08:05:45;;;;;;;;;;;;;;;22.51;61.27;101400.72;5064087;28;19935;-62
2023/08/12 08:08:10;;;;;;;;;;;;;;;22.51;61.41;101401.56;5071016;28;19924;-62
2023/08/12 08:10:36;;;;;;;;;;;;;;;22.51;61.14;101404.25;5064791;28;20288;-62
2023/08/12 08:13:01;;;;;;;;;;;;;;;22.52;61.23;101400.56;5067809;28;20370;-61
2023/08/12 08:15:26;;;;;;;;;;;;;;;22.51;61.15;101401.56;5064107;28;19923;-60
2023/08/12 08:17:51;;;;;;;;;;;;;;;22.51;61.28;101393.44;5067201;28;19919;-60
2023/08/12 08:20:16;;;;;;;;;;;;;;;22.51;61.33;101396.13;5064702;28;19924;-61
2023/08/12 08:22:42;;;;;;;;;;;;;;;22.51;61.40;101398.84;5064638;28;19912;-63
2023/08/12 08:25:07;;;;;;;;;;;;;;;22.52;61.45;101402.44;5064181;28;19913;-58
2023/08/12 08:27:33;;;;;;;;;;;;;;;22.51;61.53;101401.56;5064803;28;19917;-61
2023/08/12 08:29:58;;;;;;;;;;;;;;;22.52;61.37;101402.44;5064232;28;19920;-56
2023/08/12 08:32:23;;;;;;;;;;;;;;;22.51;61.23;101398.84;5063732;28;19962;-62
2023/08/12 08:34:48;;;;;;;;;;;;;;;22.52;61.29;101405.13;5063879;28;19928;-61
2023/08/12 08:37:14;;;;;;;;;;;;;;;22.50;61.68;101385.50;5064150;28;19920;-61
2023/08/12 08:39:39;;;;;;;;;;;;;;;22.50;61.44;101378.19;5064211;28;19921;-61
2023/08/12 08:42:05;;;;;;;;;;;;;;;22.51;61.60;101376.34;5064420;28;19919;-61
2023/08/12 08:44:33;;;;;;;;;;;;;;;22.51;61.44;101371.75;5063443;28;19940;-61
2023/08/12 08:46:59;;;;;;;;;;;;;;;22.51;61.61;101366.31;5094725;28;19940;-62
2023/08/12 08:49:24;;;;;;;;;;;;;;;22.51;61.63;101362.78;5064548;28;19923;-60
2023/08/12 08:51:49;;;;;;;;;;;;;;;22.51;61.66;101354.66;5062635;28;19948;-61
2023/08/12 08:54:14;;;;;;;;;;;;;;;22.51;61.74;101360.91;5096628;28;19981;-61
2023/08/12 08:56:40;;;;;;;;;;;;;;;22.51;61.50;101360.91;5063544;28;20389;-62
2023/08/12 08:59:05;;;;;;;;;;;;;;;22.51;61.59;101360.91;5064365;28;20027;-61
2023/08/12 09:01:30;;;;;;;;;;;;;;;22.51;61.71;101363.63;5063420;28;20309;-62
2023/08/12 09:03:56;;;;;;;;;;;;;;;22.51;61.43;101360.91;5095939;28;20293;-62
2023/08/12 09:06:22;;;;;;;;;;;;;;;22.52;61.68;101359.06;5062057;28;20479;-61
2023/08/12 09:08:48;;;;;;;;;;;;;;;22.51;61.37;101360.91;5062819;28;19958;-62
2023/08/12 09:11:13;;;;;;;;;;;;;;;22.52;61.54;101359.06;5063584;28;19913;-60
2023/08/12 09:13:38;;;;;;;;;;;;;;;22.52;61.59;101367.19;5063507;28;19916;-60
2023/08/12 09:16:04;;;;;;;;;;;;;;;22.51;61.61;101366.31;5063333;28;19913;-59
2023/08/12 09:18:29;;;;;;;;;;;;;;;22.51;61.49;101366.31;5064051;28;19940;-61
2023/08/12 09:20:54;;;;;;;;;;;;;;;22.52;61.72;101369.91;5063326;28;19924;-61
2023/08/12 09:23:20;;;;;;;;;;;;;;;22.51;61.72;101365.50;5095409;28;19952;-60
2023/08/12 09:25:45;;;;;;;;;;;;;;;22.52;61.79;101380.75;5062486;28;19912;-60
2023/08/12 09:28:10;;;;;;;;;;;;;;;22.52;61.46;101375.34;5062553;28;19928;-61
2023/08/12 09:30:36;;;;;;;;;;;;;;;22.52;61.53;101388.88;5063270;28;20001;-61
2023/08/12 09:33:03;;;;;;;;;;;;;;;22.52;61.55;101386.16;5063603;28;19920;-61
2023/08/12 09:35:36;;;;;;;;;;;;;;;22.52;61.41;101381.59;5091101;28;19963;-61
2023/08/12 09:38:02;;;;;;;;;;;;;;;22.52;61.68;101387.00;5062278;28;19912;-62
2023/08/12 09:40:27;;;;;;;;;;;;;;;22.53;61.77;101380.56;5063241;28;19917;-59
2023/08/12 09:42:52;;;;;;;;;;;;;;;22.54;61.60;101382.22;5063803;28;19925;-61
2023/08/12 09:45:20;;;;;;;;;;;;;;;22.55;61.59;101377.66;5063051;28;19923;-60
2023/08/12 09:47:46;;;;;;;;;;;;;;;22.55;61.54;101375.78;5061955;28;19952;-62
2023/08/12 09:50:11;;;;;;;;;;;;;;;22.56;61.82;101365.81;5059906;28;19920;-60
2023/08/12 09:52:36;;;;;;;;;;;;;;;22.56;61.73;101369.38;5063371;28;20661;-61
2023/08/12 09:55:01;;;;;;;;;;;;;;;22.58;61.98;101375.44;5095059;28;19916;-61
2023/08/12 09:57:26;;;;;;;;;;;;;;;22.59;62.10;101382.53;5095723;28;19912;-61
2023/08/12 09:59:53;;;;;;;;;;;;;;;22.59;62.17;101379.81;5063289;28;19919;-58
2023/08/12 10:02:19;;;;;;;;;;;;;;;22.61;62.22;101385.06;5060610;28;19913;-60
2023/08/12 10:04:44;;;;;;;;;;;;;;;22.61;62.30;101388.63;5062534;28;20000;-60
2023/08/12 10:07:10;;;;;;;;;;;;;;;22.60;62.88;101378.81;5065102;28;19921;-60
2023/08/12 10:09:36;;;;;;;;;;;;;;;22.62;63.23;101384.03;5096362;28;19913;-59
2023/08/12 10:12:01;;;;;;;;;;;;;;;22.61;63.44;101388.63;5062480;28;19913;-60
2023/08/12 10:14:26;;;;;;;;;;;;;;;22.61;63.53;101382.38;5064197;28;19932;-60
2023/08/12 10:16:51;;;;;;;;;;;;;;;22.61;63.39;101382.38;5094634;28;19919;-59
2023/08/12 10:19:17;;;;;;;;;;;;;;;22.62;63.44;101381.34;5063567;28;19913;-60
2023/08/12 10:21:43;;;;;;;;;;;;;;;22.63;63.73;101377.59;5060662;28;19927;-55
2023/08/12 10:24:08;;;;;;;;;;;;;;;22.62;64.20;101374.03;5062797;28;19940;-56
2023/08/12 10:26:34;;;;;;;;;;;;;;;22.63;64.21;101355.91;5094854;28;19940;-60
2023/08/12 10:28:59;;;;;;;;;;;;;;;22.64;64.45;101358.47;5056685;28;19987;-60
2023/08/12 10:31:26;;;;;;;;;;;;;;;22.64;64.51;101357.59;5061933;28;19916;-60
2023/08/12 10:33:51;;;;;;;;;;;;;;;22.64;64.62;101368.44;5095302;28;19920;-59
2023/08/12 10:36:19;;;;;;;;;;;;;;;22.64;64.45;101366.59;5061382;28;19933;-59
2023/08/12 10:38:44;;;;;;;;;;;;;;;22.65;64.18;101379.09;5062714;28;19951;-60
2023/08/12 10:41:22;;;;;;;;;;;;;;;22.66;64.05;101380.78;5096732;28;20395;-59
2023/08/12 10:43:50;;;;;;;;;;;;;;;22.68;64.08;101384.16;5061564;28;19919;-56
2023/08/12 10:46:32;;;;;;;;;;;;;;;22.69;64.15;101383.13;5061970;28;19913;-59
2023/08/12 10:48:59;;;;;;;;;;;;;;;22.71;64.00;101391.91;5061696;28;19936;-59
2023/08/12 10:51:42;;;;;;;;;;;;;;;22.72;63.81;101398.19;5061313;28;20305;-60
2023/08/12 10:54:15;;;;;;;;;;;;;;;22.70;63.27;101395.66;5094609;28;19983;-60
2023/08/12 10:56:59;;;;;;;;;;;;;;;22.70;63.45;101413.78;5062465;28;19916;-60
2023/08/12 10:59:43;;;;;;;;;;;;;;;22.70;63.23;101411.09;5065298;28;20015;-59
2023/08/12 11:02:13;;;;;;;;;;;;;;;22.69;63.42;101415.66;5065321;28;19913;-59
2023/08/12 11:04:38;;;;;;;;;;;;;;;22.70;63.14;101403.78;5065926;28;19959;-59
2023/08/12 11:07:14;;;;;;;;;;;;;;;22.73;62.97;101413.44;5066242;28;19924;-59
2023/08/12 11:09:39;;;;;;;;;;;;;;;22.73;62.91;101418.03;5063669;28;20405;-60
2023/08/12 11:12:05;;;;;;;;;;;;;;;22.71;62.96;101424.44;5065688;28;19934;-59
2023/08/12 11:14:30;;;;;;;;;;;;;;;22.73;63.30;101437.00;5063046;28;19923;-59
2023/08/12 11:16:55;;;;;;;;;;;;;;;22.73;63.21;101435.13;5066022;28;19921;-60
2023/08/12 11:19:20;;;;;;;;;;;;;;;22.74;63.08;101422.41;5098419;28;19919;-59
2023/08/12 11:21:45;;;;;;;;;;;;;;;22.76;62.88;101431.19;5064810;28;19921;-60
2023/08/12 11:24:10;;;;;;;;;;;;;;;22.75;63.01;101427.66;5064551;28;19952;-59
2023/08/12 11:26:36;;;;;;;;;;;;;;;22.79;63.29;101430.84;5065371;28;19913;-60
2023/08/12 11:29:02;;;;;;;;;;;;;;;22.80;63.23;101437.94;5065993;28;19936;-59
2023/08/12 11:31:27;;;;;;;;;;;;;;;22.81;63.11;101429.66;5064119;28;19917;-60
2023/08/12 11:33:53;;;;;;;;;;;;;;;22.83;63.22;101435.72;5097511;28;19923;-59
2023/08/12 11:36:19;;;;;;;;;;;;;;;22.85;63.46;101430.09;5066196;28;19928;-59
2023/08/12 11:38:44;;;;;;;;;;;;;;;22.86;63.44;101435.34;5097976;28;19913;-59
2023/08/12 11:41:09;;;;;;;;;;;;;;;22.88;63.49;101438.72;5097901;28;19967;-59
2023/08/12 11:43:34;;;;;;;;;;;;;;;22.91;63.31;101437.56;5065324;28;19920;-59
2023/08/12 11:46:00;;;;;;;;;;;;;;;22.92;63.34;101444.66;5064797;28;19917;-59
2023/08/12 11:48:28;;;;;;;;;;;;;;;22.94;63.16;101450.75;5065402;28;19920;-60
2023/08/12 11:50:53;;;;;;;;;;;;;;;22.95;63.45;101447.84;5064935;28;19972;-59
2023/08/12 11:53:18;;;;;;;;;;;;;;;22.98;63.09;101452.06;5097255;28;19935;-59
2023/08/12 11:55:44;;;;;;;;;;;;;;;23.00;63.23;101452.72;5065177;28;19913;-59
2023/08/12 11:58:09;;;;;;;;;;;;;;;23.02;62.89;101449.81;5097728;28;19972;-59
2023/08/12 12:00:34;;;;;;;;;;;;;;;23.04;62.83;101464.91;5096852;28;20386;-59
2023/08/12 12:02:59;;;;;;;;;;;;;;;23.05;63.01;101461.16;5065010;28;20708;-59
2023/08/12 12:05:29;;;;;;;;;;;;;;;23.05;62.66;101463.88;5092762;28;19917;-59
2023/08/12 12:07:55;;;;;;;;;;;;;;;23.06;62.60;101465.53;5063198;28;19921;-60
2023/08/12 12:10:21;;;;;;;;;;;;;;;23.08;62.96;101471.63;5060852;28;19955;-59
2023/08/12 12:12:47;;;;;;;;;;;;;;;23.10;62.71;101457.88;5062167;28;19912;-60
2023/08/12 12:15:12;;;;;;;;;;;;;;;23.11;62.46;101465.84;5064365;28;19916;-59
2023/08/12 12:17:38;;;;;;;;;;;;;;;23.13;62.54;101455.66;5059728;28;19924;-59
2023/08/12 12:20:05;;;;;;;;;;;;;;;23.17;62.28;101465.13;5062473;28;19917;-59
2023/08/12 12:22:31;;;;;;;;;;;;;;;23.20;62.52;101463.91;5063924;28;19985;-61
2023/08/12 12:25:00;;;;;;;;;;;;;;;23.20;62.42;101463.91;5056706;28;19916;-61
2023/08/12 12:27:26;;;;;;;;;;;;;;;23.22;62.35;101461.00;5062059;28;19917;-60